createdAt,value
2019-04-24T00:01:26.110Z,87.20
2019-04-24T00:04:23.205Z,100.00
2019-04-24T00:07:19.607Z,100.00
2019-04-24T00:16:08.584Z,100.00
2019-04-24T00:19:27.822Z,100.00
2019-04-24T00:25:03.661Z,100.00
2019-04-24T00:27:45.305Z,100.00
2019-04-24T00:30:30.115Z,100.00
2019-04-24T00:33:20.457Z,100.00
2019-04-24T00:42:08.575Z,100.00
2019-04-24T00:44:47.642Z,100.00
2019-04-24T00:47:49.629Z,100.00
2019-04-24T00:50:30.127Z,100.00
2019-04-24T00:56:15.828Z,100.00
2019-04-24T00:59:15.791Z,100.00
2019-04-24T01:02:12.615Z,100.00
2019-04-24T01:08:19.653Z,100.00
2019-04-24T01:11:26.805Z,100.00
2019-04-24T01:20:15.218Z,100.00
2019-04-24T01:25:39.198Z,100.00
2019-04-24T01:28:32.908Z,100.00
2019-04-24T01:41:00.004Z,100.00
2019-04-24T01:43:44.141Z,100.00
2019-04-24T01:46:26.794Z,100.00
2019-04-24T01:49:25.942Z,100.00
2019-04-24T01:52:30.589Z,100.00
2019-04-24T01:55:06.726Z,100.00
2019-04-24T01:57:46.548Z,100.00
2019-04-24T02:06:41.376Z,100.00
2019-04-24T02:12:39.334Z,100.00
2019-04-24T02:15:28.654Z,100.00
2019-04-24T02:20:49.320Z,100.00
2019-04-24T02:23:39.919Z,100.00
2019-04-24T02:26:28.913Z,100.00
2019-04-24T02:29:19.129Z,100.00
2019-04-24T02:35:54.111Z,100.00
2019-04-24T02:44:47.229Z,100.00
2019-04-24T02:47:24.520Z,100.00
2019-04-24T02:52:53.128Z,100.00
2019-04-24T03:01:28.248Z,100.00
2019-04-24T03:07:22.093Z,100.00
2019-04-24T03:16:00.114Z,100.00
2019-04-24T03:18:53.520Z,100.00
2019-04-24T03:21:42.301Z,100.00
2019-04-24T03:24:26.407Z,100.00
2019-04-24T03:30:28.540Z,100.00
2019-04-24T03:38:52.846Z,100.00
2019-04-24T03:44:55.489Z,100.00
2019-04-24T03:53:00.680Z,100.00
2019-04-24T04:05:06.632Z,100.00
2019-04-24T04:07:40.334Z,100.00
2019-04-24T04:10:39.340Z,100.00
2019-04-24T04:16:37.283Z,100.00
2019-04-24T04:25:27.075Z,100.00
2019-04-24T04:28:00.215Z,100.00
2019-04-24T04:34:22.987Z,100.00
2019-04-24T04:36:59.063Z,100.00
2019-04-24T04:43:24.043Z,100.00
2019-04-24T04:46:07.957Z,100.00
2019-04-24T04:54:06.898Z,100.00
2019-04-24T04:57:03.305Z,100.00
2019-04-24T04:59:53.744Z,100.00
2019-04-24T05:03:15.792Z,100.00
2019-04-24T05:06:43.130Z,100.00
2019-04-24T05:17:51.973Z,100.00
2019-04-24T05:20:24.515Z,97.67
2019-04-24T05:22:56.579Z,74.28
2019-04-24T05:26:37.294Z,57.01
2019-04-24T05:29:01.305Z,48.36
2019-04-24T05:34:58.224Z,40.85
2019-04-24T05:37:55.245Z,38.48
2019-04-24T05:43:56.380Z,35.40
2019-04-24T05:52:29.505Z,32.64
2019-04-24T05:55:38.411Z,31.76
2019-04-24T06:01:17.842Z,31.12
2019-04-24T06:07:46.862Z,35.68
2019-04-24T06:10:55.231Z,39.11
2019-04-24T06:13:42.261Z,45.71
2019-04-24T06:17:08.005Z,46.52
2019-04-24T06:22:53.463Z,44.92
2019-04-24T06:26:03.986Z,84.28
2019-04-24T06:28:42.599Z,100.00
2019-04-24T06:34:23.672Z,99.37
2019-04-24T06:37:36.553Z,90.95
2019-04-24T06:43:49.860Z,90.24
2019-04-24T06:46:36.292Z,90.68
2019-04-24T06:52:14.111Z,91.34
2019-04-24T06:55:03.414Z,100.00
2019-04-24T06:57:27.571Z,93.37
2019-04-24T07:07:16.310Z,94.27
2019-04-24T07:13:46.160Z,97.99
2019-04-24T07:25:49.341Z,88.00
2019-04-24T07:28:42.173Z,83.64
2019-04-24T07:34:49.917Z,83.31
2019-04-24T07:43:41.593Z,86.96
2019-04-24T07:46:28.629Z,85.56
2019-04-24T07:52:24.988Z,91.95
2019-04-24T07:54:56.607Z,96.15
2019-04-24T08:01:07.549Z,97.33
2019-04-24T08:03:25.371Z,96.19
2019-04-24T08:06:04.448Z,100.00
2019-04-24T08:09:26.816Z,100.00
2019-04-24T08:12:11.703Z,100.00
2019-04-24T08:17:45.810Z,100.00
2019-04-24T08:20:39.078Z,100.00
2019-04-24T08:23:18.856Z,95.21
2019-04-24T08:26:06.913Z,92.56
2019-04-24T08:32:06.722Z,96.79
2019-04-24T08:34:50.756Z,100.00
2019-04-24T08:44:03.344Z,96.70
2019-04-24T08:55:52.633Z,87.03
2019-04-24T09:11:15.659Z,67.91
2019-04-24T09:16:55.224Z,76.03
2019-04-24T09:22:36.428Z,67.65
2019-04-24T09:29:12.210Z,59.79
2019-04-24T09:32:13.580Z,61.12
2019-04-24T09:50:04.262Z,52.53
2019-04-24T09:52:58.948Z,54.50
2019-04-24T09:58:37.485Z,58.11
2019-04-24T10:07:40.994Z,55.50
2019-04-24T10:10:17.070Z,60.43
2019-04-24T10:16:02.287Z,56.02
2019-04-24T10:22:16.472Z,52.47
2019-04-24T10:32:13.360Z,58.62
2019-04-24T10:44:24.176Z,53.67
2019-04-24T10:56:30.756Z,60.31
2019-04-24T10:59:17.049Z,54.40
2019-04-24T11:08:37.688Z,59.88
2019-04-24T11:21:32.868Z,50.77
2019-04-24T11:23:54.730Z,47.64
2019-04-24T11:26:38.630Z,50.06
2019-04-24T11:35:37.678Z,49.93
2019-04-24T11:44:32.901Z,52.41
2019-04-24T11:53:25.786Z,36.00
2019-04-24T12:02:52.923Z,31.01
2019-04-24T12:06:06.332Z,31.04
2019-04-24T12:24:06.898Z,26.73
2019-04-24T12:26:53.153Z,27.33
2019-04-24T12:29:58.509Z,27.67
2019-04-24T12:32:51.896Z,26.54
2019-04-24T12:35:49.780Z,26.05
2019-04-24T12:38:40.540Z,24.80
2019-04-24T12:47:46.755Z,25.91
2019-04-24T12:50:43.658Z,26.31
2019-04-24T13:03:12.513Z,27.88
2019-04-24T13:09:01.496Z,27.27
2019-04-24T13:15:11.844Z,27.99
2019-04-24T13:20:30.033Z,26.69
2019-04-24T13:23:34.524Z,26.22
2019-04-24T13:26:44.692Z,26.57
2019-04-24T13:35:54.807Z,24.94
2019-04-24T13:38:45.847Z,24.61
2019-04-24T13:41:17.001Z,23.58
2019-04-24T13:44:14.544Z,22.78
2019-04-24T13:47:06.058Z,23.28
2019-04-24T13:49:49.840Z,25.28
2019-04-24T13:55:29.592Z,27.62
2019-04-24T13:58:25.533Z,27.64
2019-04-24T14:04:17.297Z,24.47
2019-04-24T14:07:10.845Z,25.93
2019-04-24T14:15:46.846Z,25.75
2019-04-24T14:21:41.652Z,24.25
2019-04-24T14:24:14.405Z,25.45
2019-04-24T14:29:48.592Z,26.88
2019-04-24T14:32:45.871Z,26.23
2019-04-24T14:35:37.377Z,26.91
2019-04-24T14:38:25.605Z,26.82
2019-04-24T14:41:20.609Z,26.58
2019-04-24T14:44:33.743Z,26.36
2019-04-24T14:50:27.269Z,27.00
2019-04-24T14:52:46.601Z,27.37
2019-04-24T14:55:45.065Z,28.56
2019-04-24T14:58:31.340Z,27.81
2019-04-24T15:01:17.696Z,27.99
2019-04-24T15:07:08.519Z,28.87
2019-04-24T15:09:52.791Z,28.67
2019-04-24T15:12:43.927Z,29.89
2019-04-24T15:32:28.146Z,33.28
2019-04-24T15:35:20.609Z,33.96
2019-04-24T15:38:05.682Z,33.59
2019-04-24T15:40:52.611Z,33.72
2019-04-24T15:43:25.149Z,33.89
2019-04-24T15:46:15.472Z,32.95
2019-04-24T15:51:34.854Z,33.19
2019-04-24T15:54:14.173Z,32.62
2019-04-24T15:57:04.894Z,32.88
2019-04-24T16:00:14.962Z,32.39
2019-04-24T16:03:17.872Z,31.63
2019-04-24T16:05:27.135Z,29.80
2019-04-24T16:08:17.715Z,29.77
2019-04-24T16:11:02.451Z,30.48
2019-04-24T16:14:03.953Z,30.82
2019-04-24T16:17:01.854Z,31.21
2019-04-24T16:19:58.453Z,31.05
2019-04-24T16:22:38.284Z,30.91
2019-04-24T16:31:47.991Z,87.77
2019-04-24T16:37:12.330Z,100.00
2019-04-24T16:40:16.844Z,100.00
2019-04-24T16:51:53.924Z,100.00
2019-04-24T16:54:23.858Z,100.00
2019-04-24T16:57:20.188Z,100.00
2019-04-24T17:00:14.296Z,100.00
2019-04-24T17:03:04.456Z,100.00
2019-04-24T17:05:50.231Z,100.00
2019-04-24T17:08:34.729Z,100.00
2019-04-24T17:21:41.576Z,100.00
2019-04-24T17:23:43.945Z,100.00
2019-04-24T17:26:41.949Z,100.00
2019-04-24T17:29:26.571Z,100.00
2019-04-24T17:32:28.609Z,100.00
2019-04-24T17:37:38.058Z,100.00
2019-04-24T17:44:05.625Z,100.00
2019-04-24T17:46:52.599Z,100.00
2019-04-24T17:49:44.501Z,100.00
2019-04-24T17:52:39.335Z,100.00
2019-04-24T17:55:07.843Z,100.00
2019-04-24T17:59:54.365Z,100.00
2019-04-24T18:02:25.755Z,100.00
2019-04-24T18:05:15.575Z,100.00
2019-04-24T18:11:01.631Z,100.00
2019-04-24T18:13:52.243Z,100.00
2019-04-24T18:16:35.020Z,100.00
2019-04-24T18:19:24.733Z,100.00
2019-04-24T18:22:09.292Z,100.00
2019-04-24T18:25:17.879Z,100.00
2019-04-24T18:28:03.380Z,100.00
2019-04-24T18:30:53.273Z,100.00
2019-04-24T18:33:35.435Z,100.00
2019-04-24T18:36:25.171Z,100.00
2019-04-24T18:39:08.227Z,100.00
2019-04-24T18:41:57.961Z,100.00
2019-04-24T18:44:41.476Z,100.00
2019-04-24T18:47:31.284Z,100.00
2019-04-24T18:50:14.265Z,100.00
2019-04-24T18:53:04.734Z,100.00
2019-04-24T18:58:55.431Z,100.00
2019-04-24T19:01:45.131Z,100.00
2019-04-24T19:04:27.209Z,100.00
2019-04-24T19:07:17.002Z,100.00
2019-04-24T19:09:59.384Z,100.00
2019-04-24T19:12:49.129Z,100.00
2019-04-24T19:15:33.025Z,100.00
2019-04-24T19:18:22.778Z,100.00
2019-04-24T19:21:04.922Z,100.00
2019-04-24T19:24:13.979Z,100.00
2019-04-24T19:26:56.335Z,100.00
2019-04-24T19:29:46.031Z,100.00
2019-04-24T19:32:28.076Z,100.00
2019-04-24T19:35:17.942Z,100.00
2019-04-24T19:38:01.420Z,100.00
2019-04-24T19:41:11.287Z,100.00
2019-04-24T19:43:54.128Z,100.00
2019-04-24T19:46:43.879Z,100.00
2019-04-24T19:49:26.441Z,100.00
2019-04-24T19:52:16.187Z,100.00
2019-04-24T19:54:58.520Z,100.00
2019-04-24T19:57:48.240Z,100.00
2019-04-24T20:00:30.478Z,100.00
2019-04-24T20:03:21.777Z,100.00
2019-04-24T20:06:04.800Z,100.00
2019-04-24T20:08:54.505Z,100.00
2019-04-24T20:14:46.583Z,100.00
2019-04-24T20:17:29.542Z,100.00
2019-04-24T20:20:31.353Z,100.00
2019-04-24T20:23:26.412Z,100.00
2019-04-24T20:26:05.969Z,100.00
2019-04-24T20:28:48.344Z,100.00
2019-04-24T20:31:38.153Z,100.00
2019-04-24T20:34:21.830Z,100.00
2019-04-24T20:37:11.822Z,100.00
2019-04-24T20:39:53.862Z,100.00
2019-04-24T20:42:43.607Z,100.00
2019-04-24T20:45:26.448Z,100.00
2019-04-24T20:48:18.061Z,100.00
2019-04-24T20:51:07.886Z,100.00
2019-04-24T20:53:57.698Z,100.00
2019-04-24T20:56:47.489Z,100.00
2019-04-24T20:59:37.294Z,100.00
2019-04-24T21:08:28.614Z,100.00
2019-04-24T21:11:19.125Z,100.00
2019-04-24T21:14:02.362Z,100.00
2019-04-24T21:16:52.264Z,100.00
2019-04-24T21:19:42.343Z,100.00
2019-04-24T21:22:32.644Z,100.00
2019-04-24T21:25:16.925Z,100.00
2019-04-24T21:28:06.826Z,100.00
2019-04-24T21:30:56.553Z,100.00
2019-04-24T21:33:58.584Z,100.00
2019-04-24T21:36:42.321Z,100.00
2019-04-24T21:39:33.222Z,100.00
2019-04-24T21:42:15.818Z,100.00
2019-04-24T21:45:06.126Z,100.00
2019-04-24T21:47:49.681Z,100.00
2019-04-24T21:50:41.114Z,100.00
2019-04-24T21:53:24.522Z,100.00
2019-04-24T21:56:14.424Z,100.00
2019-04-24T21:58:57.218Z,100.00
2019-04-24T22:02:25.187Z,100.00
2019-04-24T22:05:27.521Z,100.00
2019-04-24T22:11:21.315Z,100.00
2019-04-24T22:14:13.648Z,100.00
2019-04-24T22:16:57.665Z,100.00
2019-04-24T22:19:47.800Z,100.00
2019-04-24T22:26:02.051Z,100.00
2019-04-24T22:28:44.089Z,100.00
2019-04-24T22:31:52.861Z,100.00
2019-04-24T22:37:38.065Z,100.00
2019-04-24T22:40:38.831Z,100.00
2019-04-24T22:43:29.909Z,100.00
2019-04-24T22:46:13.219Z,100.00
2019-04-24T22:49:03.061Z,100.00
2019-04-24T22:51:52.909Z,100.00
2019-04-24T22:54:43.509Z,100.00
2019-04-24T22:57:27.579Z,100.00
2019-04-24T23:03:34.842Z,100.00
2019-04-24T23:06:24.599Z,100.00
2019-04-24T23:09:08.577Z,100.00
2019-04-24T23:11:58.365Z,100.00
2019-04-24T23:17:29.229Z,100.00
2019-04-24T23:20:01.452Z,100.00
2019-04-24T23:22:59.107Z,100.00
2019-04-24T23:26:07.623Z,100.00
2019-04-24T23:29:10.009Z,100.00
2019-04-24T23:32:18.515Z,100.00
2019-04-24T23:35:01.129Z,100.00
2019-04-24T23:37:51.461Z,100.00
2019-04-24T23:40:34.688Z,100.00
2019-04-24T23:43:24.382Z,100.00
2019-04-24T23:46:07.851Z,100.00
2019-04-24T23:48:57.913Z,100.00
2019-04-24T23:51:40.464Z,100.00
2019-04-24T23:54:30.210Z,100.00
2019-04-24T23:57:12.960Z,100.00
